sensor_id;sensor_type;location;lat;lon;timestamp;P1;durP1;ratioP1;P2;durP2;ratioP2
33279;SDS011;20403;43.114;12.434;2023-05-18T00:01:11;2.45;;;1.10;;
33279;SDS011;20403;43.114;12.434;2023-05-18T00:03:38;3.15;;;1.80;;
33279;SDS011;20403;43.114;12.434;2023-05-18T00:06:05;1.20;;;0.20;;
33279;SDS011;20403;43.114;12.434;2023-05-18T00:08:34;3.63;;;0.15;;
33279;SDS011;20403;43.114;12.434;2023-05-18T00:11:01;0.43;;;0.20;;
33279;SDS011;20403;43.114;12.434;2023-05-18T00:13:27;0.28;;;0.20;;
33279;SDS011;20403;43.114;12.434;2023-05-18T00:15:53;0.38;;;0.10;;
33279;SDS011;20403;43.114;12.434;2023-05-18T00:18:18;2.13;;;0.10;;
33279;SDS011;20403;43.114;12.434;2023-05-18T00:20:47;0.10;;;0.00;;
33279;SDS011;20403;43.114;12.434;2023-05-18T00:23:22;1.50;;;0.20;;
33279;SDS011;20403;43.114;12.434;2023-05-18T00:25:54;4.28;;;0.13;;
33279;SDS011;20403;43.114;12.434;2023-05-18T00:28:23;2.00;;;0.00;;
33279;SDS011;20403;43.114;12.434;2023-05-18T00:30:48;0.00;;;0.00;;
33279;SDS011;20403;43.114;12.434;2023-05-18T00:33:14;0.10;;;0.05;;
33279;SDS011;20403;43.114;12.434;2023-05-18T00:35:39;2.60;;;0.17;;
33279;SDS011;20403;43.114;12.434;2023-05-18T00:38:05;0.47;;;0.13;;
33279;SDS011;20403;43.114;12.434;2023-05-18T00:40:30;1.70;;;0.00;;
33279;SDS011;20403;43.114;12.434;2023-05-18T00:42:56;0.40;;;0.10;;
33279;SDS011;20403;43.114;12.434;2023-05-18T00:45:21;0.00;;;0.00;;
33279;SDS011;20403;43.114;12.434;2023-05-18T00:47:47;0.13;;;0.00;;
33279;SDS011;20403;43.114;12.434;2023-05-18T00:50:12;0.00;;;0.00;;
33279;SDS011;20403;43.114;12.434;2023-05-18T00:52:38;1.25;;;0.00;;
33279;SDS011;20403;43.114;12.434;2023-05-18T00:55:05;0.22;;;0.00;;
33279;SDS011;20403;43.114;12.434;2023-05-18T00:57:32;0.20;;;0.10;;
33279;SDS011;20403;43.114;12.434;2023-05-18T00:59:58;0.00;;;0.00;;
33279;SDS011;20403;43.114;12.434;2023-05-18T01:02:24;0.40;;;0.00;;
33279;SDS011;20403;43.114;12.434;2023-05-18T01:04:54;0.10;;;0.00;;
33279;SDS011;20403;43.114;12.434;2023-05-18T01:07:19;4.80;;;0.40;;
33279;SDS011;20403;43.114;12.434;2023-05-18T01:09:50;0.93;;;0.08;;
33279;SDS011;20403;43.114;12.434;2023-05-18T01:12:20;0.00;;;0.00;;
33279;SDS011;20403;43.114;12.434;2023-05-18T01:26:12;1.67;;;0.20;;
33279;SDS011;20403;43.114;12.434;2023-05-18T01:28:49;0.10;;;0.10;;
33279;SDS011;20403;43.114;12.434;2023-05-18T01:31:16;0.65;;;0.20;;
33279;SDS011;20403;43.114;12.434;2023-05-18T01:33:42;1.20;;;0.17;;
33279;SDS011;20403;43.114;12.434;2023-05-18T01:36:08;0.10;;;0.10;;
33279;SDS011;20403;43.114;12.434;2023-05-18T01:38:34;0.32;;;0.20;;
33279;SDS011;20403;43.114;12.434;2023-05-18T01:43:35;2.28;;;0.10;;
33279;SDS011;20403;43.114;12.434;2023-05-18T01:46:10;0.38;;;0.20;;
33279;SDS011;20403;43.114;12.434;2023-05-18T01:48:43;0.40;;;0.13;;
33279;SDS011;20403;43.114;12.434;2023-05-18T01:51:14;0.10;;;0.10;;
33279;SDS011;20403;43.114;12.434;2023-05-18T01:53:45;0.35;;;0.15;;
33279;SDS011;20403;43.114;12.434;2023-05-18T01:56:26;0.43;;;0.10;;
33279;SDS011;20403;43.114;12.434;2023-05-18T01:58:54;3.15;;;0.40;;
33279;SDS011;20403;43.114;12.434;2023-05-18T02:01:22;0.60;;;0.20;;
33279;SDS011;20403;43.114;12.434;2023-05-18T02:03:47;3.58;;;0.38;;
33279;SDS011;20403;43.114;12.434;2023-05-18T02:06:13;5.72;;;0.47;;
33279;SDS011;20403;43.114;12.434;2023-05-18T02:08:38;0.38;;;0.20;;
33279;SDS011;20403;43.114;12.434;2023-05-18T02:11:04;0.13;;;0.13;;
33279;SDS011;20403;43.114;12.434;2023-05-18T02:13:30;0.75;;;0.40;;
33279;SDS011;20403;43.114;12.434;2023-05-18T02:15:55;0.95;;;0.30;;
33279;SDS011;20403;43.114;12.434;2023-05-18T02:18:21;1.45;;;0.30;;
33279;SDS011;20403;43.114;12.434;2023-05-18T02:20:46;1.27;;;0.32;;
33279;SDS011;20403;43.114;12.434;2023-05-18T02:23:13;1.02;;;0.30;;
33279;SDS011;20403;43.114;12.434;2023-05-18T02:25:39;0.17;;;0.10;;
33279;SDS011;20403;43.114;12.434;2023-05-18T02:28:04;3.88;;;0.40;;
33279;SDS011;20403;43.114;12.434;2023-05-18T02:30:30;2.78;;;0.50;;
33279;SDS011;20403;43.114;12.434;2023-05-18T02:32:57;2.40;;;0.30;;
33279;SDS011;20403;43.114;12.434;2023-05-18T02:35:23;1.30;;;0.40;;
33279;SDS011;20403;43.114;12.434;2023-05-18T02:37:48;0.55;;;0.28;;
33279;SDS011;20403;43.114;12.434;2023-05-18T02:40:14;0.45;;;0.30;;
33279;SDS011;20403;43.114;12.434;2023-05-18T02:42:40;2.45;;;0.43;;
33279;SDS011;20403;43.114;12.434;2023-05-18T02:45:06;2.35;;;0.30;;
33279;SDS011;20403;43.114;12.434;2023-05-18T02:47:32;4.78;;;0.40;;
33279;SDS011;20403;43.114;12.434;2023-05-18T02:49:58;9.25;;;0.50;;
33279;SDS011;20403;43.114;12.434;2023-05-18T02:52:23;3.92;;;0.40;;
33279;SDS011;20403;43.114;12.434;2023-05-18T02:54:49;0.98;;;0.47;;
33279;SDS011;20403;43.114;12.434;2023-05-18T02:57:18;1.27;;;0.35;;
33279;SDS011;20403;43.114;12.434;2023-05-18T02:59:44;0.98;;;0.40;;
33279;SDS011;20403;43.114;12.434;2023-05-18T03:02:10;1.88;;;0.40;;
33279;SDS011;20403;43.114;12.434;2023-05-18T03:04:38;7.30;;;0.50;;
33279;SDS011;20403;43.114;12.434;2023-05-18T03:07:04;0.95;;;0.30;;
33279;SDS011;20403;43.114;12.434;2023-05-18T03:09:31;0.90;;;0.30;;
33279;SDS011;20403;43.114;12.434;2023-05-18T03:11:56;0.55;;;0.47;;
33279;SDS011;20403;43.114;12.434;2023-05-18T03:14:22;2.20;;;0.28;;
33279;SDS011;20403;43.114;12.434;2023-05-18T03:16:47;3.05;;;0.50;;
33279;SDS011;20403;43.114;12.434;2023-05-18T03:19:17;3.92;;;1.02;;
33279;SDS011;20403;43.114;12.434;2023-05-18T03:21:43;1.15;;;0.30;;
33279;SDS011;20403;43.114;12.434;2023-05-18T03:24:08;1.85;;;0.60;;
33279;SDS011;20403;43.114;12.434;2023-05-18T03:26:33;2.67;;;0.55;;
33279;SDS011;20403;43.114;12.434;2023-05-18T03:28:59;1.17;;;0.50;;
33279;SDS011;20403;43.114;12.434;2023-05-18T03:31:25;1.98;;;0.22;;
33279;SDS011;20403;43.114;12.434;2023-05-18T03:33:51;1.60;;;0.52;;
33279;SDS011;20403;43.114;12.434;2023-05-18T03:36:16;5.15;;;0.90;;
33279;SDS011;20403;43.114;12.434;2023-05-18T03:38:42;2.80;;;0.43;;
33279;SDS011;20403;43.114;12.434;2023-05-18T03:41:10;1.13;;;0.40;;
33279;SDS011;20403;43.114;12.434;2023-05-18T03:43:36;1.42;;;0.40;;
33279;SDS011;20403;43.114;12.434;2023-05-18T03:46:02;3.13;;;0.63;;
33279;SDS011;20403;43.114;12.434;2023-05-18T03:48:28;1.25;;;0.60;;
33279;SDS011;20403;43.114;12.434;2023-05-18T03:50:53;5.95;;;0.63;;
33279;SDS011;20403;43.114;12.434;2023-05-18T03:53:19;0.55;;;0.20;;
33279;SDS011;20403;43.114;12.434;2023-05-18T03:55:45;1.95;;;0.50;;
33279;SDS011;20403;43.114;12.434;2023-05-18T03:58:13;1.60;;;0.57;;
33279;SDS011;20403;43.114;12.434;2023-05-18T04:00:39;1.38;;;0.70;;
33279;SDS011;20403;43.114;12.434;2023-05-18T04:03:04;1.23;;;0.43;;
33279;SDS011;20403;43.114;12.434;2023-05-18T04:05:30;8.98;;;0.50;;
33279;SDS011;20403;43.114;12.434;2023-05-18T04:07:55;6.18;;;0.70;;
33279;SDS011;20403;43.114;12.434;2023-05-18T04:10:21;0.90;;;0.55;;
33279;SDS011;20403;43.114;12.434;2023-05-18T04:12:47;6.00;;;0.57;;
33279;SDS011;20403;43.114;12.434;2023-05-18T04:15:12;3.30;;;1.15;;
33279;SDS011;20403;43.114;12.434;2023-05-18T04:17:40;2.15;;;0.50;;
33279;SDS011;20403;43.114;12.434;2023-05-18T04:20:12;1.40;;;0.65;;
33279;SDS011;20403;43.114;12.434;2023-05-18T04:22:39;1.05;;;0.80;;
33279;SDS011;20403;43.114;12.434;2023-05-18T04:25:07;3.22;;;0.73;;
33279;SDS011;20403;43.114;12.434;2023-05-18T04:27:35;2.10;;;0.80;;
33279;SDS011;20403;43.114;12.434;2023-05-18T04:30:02;3.40;;;0.93;;
33279;SDS011;20403;43.114;12.434;2023-05-18T04:32:27;1.27;;;0.60;;
33279;SDS011;20403;43.114;12.434;2023-05-18T04:34:55;3.88;;;0.82;;
33279;SDS011;20403;43.114;12.434;2023-05-18T04:37:22;2.13;;;0.60;;
33279;SDS011;20403;43.114;12.434;2023-05-18T04:39:48;3.35;;;0.80;;
33279;SDS011;20403;43.114;12.434;2023-05-18T04:42:13;3.75;;;0.82;;
33279;SDS011;20403;43.114;12.434;2023-05-18T04:44:42;4.60;;;0.82;;
33279;SDS011;20403;43.114;12.434;2023-05-18T04:47:08;2.78;;;0.80;;
33279;SDS011;20403;43.114;12.434;2023-05-18T04:49:33;3.45;;;0.93;;
33279;SDS011;20403;43.114;12.434;2023-05-18T04:51:59;1.98;;;0.75;;
33279;SDS011;20403;43.114;12.434;2023-05-18T04:54:25;2.40;;;0.82;;
33279;SDS011;20403;43.114;12.434;2023-05-18T04:56:55;2.35;;;0.75;;
33279;SDS011;20403;43.114;12.434;2023-05-18T04:59:21;2.20;;;0.80;;
33279;SDS011;20403;43.114;12.434;2023-05-18T05:01:50;1.90;;;0.65;;
33279;SDS011;20403;43.114;12.434;2023-05-18T05:04:20;2.10;;;0.68;;
33279;SDS011;20403;43.114;12.434;2023-05-18T05:06:46;1.95;;;0.80;;
33279;SDS011;20403;43.114;12.434;2023-05-18T05:09:12;1.70;;;0.73;;
33279;SDS011;20403;43.114;12.434;2023-05-18T05:11:38;4.15;;;0.73;;
33279;SDS011;20403;43.114;12.434;2023-05-18T05:14:04;4.60;;;1.35;;
33279;SDS011;20403;43.114;12.434;2023-05-18T05:16:30;0.85;;;0.60;;
33279;SDS011;20403;43.114;12.434;2023-05-18T05:18:55;2.85;;;0.98;;
33279;SDS011;20403;43.114;12.434;2023-05-18T05:21:21;4.97;;;0.90;;
33279;SDS011;20403;43.114;12.434;2023-05-18T05:23:46;2.75;;;0.80;;
33279;SDS011;20403;43.114;12.434;2023-05-18T05:26:12;2.72;;;0.80;;
33279;SDS011;20403;43.114;12.434;2023-05-18T05:28:37;6.40;;;1.00;;
33279;SDS011;20403;43.114;12.434;2023-05-18T05:31:03;4.82;;;0.60;;
33279;SDS011;20403;43.114;12.434;2023-05-18T05:33:28;4.03;;;0.70;;
33279;SDS011;20403;43.114;12.434;2023-05-18T05:35:54;11.77;;;0.98;;
33279;SDS011;20403;43.114;12.434;2023-05-18T05:38:19;6.30;;;0.52;;
33279;SDS011;20403;43.114;12.434;2023-05-18T05:40:45;1.40;;;0.50;;
33279;SDS011;20403;43.114;12.434;2023-05-18T05:43:10;2.35;;;0.50;;
33279;SDS011;20403;43.114;12.434;2023-05-18T05:45:35;3.88;;;0.93;;
33279;SDS011;20403;43.114;12.434;2023-05-18T05:48:01;4.00;;;0.75;;
33279;SDS011;20403;43.114;12.434;2023-05-18T05:50:26;1.55;;;0.50;;
33279;SDS011;20403;43.114;12.434;2023-05-18T05:52:52;9.15;;;0.75;;
33279;SDS011;20403;43.114;12.434;2023-05-18T05:55:17;0.70;;;0.45;;
33279;SDS011;20403;43.114;12.434;2023-05-18T05:57:43;1.38;;;0.40;;
33279;SDS011;20403;43.114;12.434;2023-05-18T06:00:09;0.20;;;0.20;;
33279;SDS011;20403;43.114;12.434;2023-05-18T06:02:36;0.77;;;0.30;;
33279;SDS011;20403;43.114;12.434;2023-05-18T06:05:02;2.53;;;0.63;;
33279;SDS011;20403;43.114;12.434;2023-05-18T06:07:28;1.45;;;0.60;;
33279;SDS011;20403;43.114;12.434;2023-05-18T06:09:54;1.42;;;0.60;;
33279;SDS011;20403;43.114;12.434;2023-05-18T06:12:20;1.90;;;0.50;;
33279;SDS011;20403;43.114;12.434;2023-05-18T06:14:45;4.38;;;0.45;;
33279;SDS011;20403;43.114;12.434;2023-05-18T06:17:11;1.08;;;0.50;;
33279;SDS011;20403;43.114;12.434;2023-05-18T06:19:36;1.85;;;0.57;;
33279;SDS011;20403;43.114;12.434;2023-05-18T06:22:02;2.30;;;0.80;;
33279;SDS011;20403;43.114;12.434;2023-05-18T06:24:27;5.55;;;0.68;;
33279;SDS011;20403;43.114;12.434;2023-05-18T06:26:53;2.75;;;0.70;;
33279;SDS011;20403;43.114;12.434;2023-05-18T06:29:18;2.47;;;0.70;;
33279;SDS011;20403;43.114;12.434;2023-05-18T06:31:45;2.05;;;0.90;;
33279;SDS011;20403;43.114;12.434;2023-05-18T06:34:10;4.93;;;0.73;;
33279;SDS011;20403;43.114;12.434;2023-05-18T06:36:36;2.72;;;0.90;;
33279;SDS011;20403;43.114;12.434;2023-05-18T06:39:02;2.28;;;1.10;;
33279;SDS011;20403;43.114;12.434;2023-05-18T06:41:28;2.45;;;0.90;;
33279;SDS011;20403;43.114;12.434;2023-05-18T06:43:54;2.10;;;0.73;;
33279;SDS011;20403;43.114;12.434;2023-05-18T06:46:21;3.65;;;1.00;;
33279;SDS011;20403;43.114;12.434;2023-05-18T06:48:47;1.92;;;0.73;;
33279;SDS011;20403;43.114;12.434;2023-05-18T06:51:13;1.33;;;0.63;;
33279;SDS011;20403;43.114;12.434;2023-05-18T06:53:40;1.60;;;0.75;;
33279;SDS011;20403;43.114;12.434;2023-05-18T06:56:06;3.95;;;0.90;;
33279;SDS011;20403;43.114;12.434;2023-05-18T06:58:31;1.60;;;0.55;;
33279;SDS011;20403;43.114;12.434;2023-05-18T07:00:57;5.00;;;0.95;;
33279;SDS011;20403;43.114;12.434;2023-05-18T07:03:22;0.93;;;0.52;;
33279;SDS011;20403;43.114;12.434;2023-05-18T07:05:48;1.05;;;0.60;;
33279;SDS011;20403;43.114;12.434;2023-05-18T07:08:13;7.07;;;0.80;;
33279;SDS011;20403;43.114;12.434;2023-05-18T07:10:39;5.45;;;0.45;;
33279;SDS011;20403;43.114;12.434;2023-05-18T07:13:04;1.45;;;0.63;;
33279;SDS011;20403;43.114;12.434;2023-05-18T07:15:30;1.85;;;1.10;;
33279;SDS011;20403;43.114;12.434;2023-05-18T07:17:55;6.20;;;0.70;;
33279;SDS011;20403;43.114;12.434;2023-05-18T07:20:21;2.80;;;0.80;;
33279;SDS011;20403;43.114;12.434;2023-05-18T07:22:47;0.50;;;0.30;;
33279;SDS011;20403;43.114;12.434;2023-05-18T07:25:12;1.05;;;0.50;;
33279;SDS011;20403;43.114;12.434;2023-05-18T07:27:38;2.38;;;0.20;;
33279;SDS011;20403;43.114;12.434;2023-05-18T07:30:03;1.75;;;0.52;;
33279;SDS011;20403;43.114;12.434;2023-05-18T07:32:29;0.68;;;0.40;;
33279;SDS011;20403;43.114;12.434;2023-05-18T07:34:55;0.35;;;0.30;;
33279;SDS011;20403;43.114;12.434;2023-05-18T07:37:20;4.03;;;0.93;;
33279;SDS011;20403;43.114;12.434;2023-05-18T07:39:46;1.25;;;0.40;;
33279;SDS011;20403;43.114;12.434;2023-05-18T07:42:11;3.78;;;0.60;;
33279;SDS011;20403;43.114;12.434;2023-05-18T07:44:37;1.45;;;0.38;;
33279;SDS011;20403;43.114;12.434;2023-05-18T07:47:02;3.28;;;0.70;;
33279;SDS011;20403;43.114;12.434;2023-05-18T07:49:28;0.80;;;0.40;;
33279;SDS011;20403;43.114;12.434;2023-05-18T07:51:54;1.02;;;0.47;;
33279;SDS011;20403;43.114;12.434;2023-05-18T07:54:19;3.75;;;0.57;;
33279;SDS011;20403;43.114;12.434;2023-05-18T07:56:44;2.58;;;0.70;;
33279;SDS011;20403;43.114;12.434;2023-05-18T07:59:10;1.02;;;0.60;;
33279;SDS011;20403;43.114;12.434;2023-05-18T08:01:36;1.75;;;0.40;;
33279;SDS011;20403;43.114;12.434;2023-05-18T08:04:02;2.78;;;0.70;;
33279;SDS011;20403;43.114;12.434;2023-05-18T08:06:28;1.77;;;0.50;;
33279;SDS011;20403;43.114;12.434;2023-05-18T08:08:53;0.55;;;0.40;;
33279;SDS011;20403;43.114;12.434;2023-05-18T08:11:21;3.22;;;0.60;;
33279;SDS011;20403;43.114;12.434;2023-05-18T08:13:47;1.70;;;0.70;;
33279;SDS011;20403;43.114;12.434;2023-05-18T08:16:12;0.93;;;0.55;;
33279;SDS011;20403;43.114;12.434;2023-05-18T08:18:38;3.08;;;0.55;;
33279;SDS011;20403;43.114;12.434;2023-05-18T08:21:04;1.67;;;0.60;;
33279;SDS011;20403;43.114;12.434;2023-05-18T08:23:32;1.00;;;0.50;;
33279;SDS011;20403;43.114;12.434;2023-05-18T08:25:58;0.90;;;0.50;;
33279;SDS011;20403;43.114;12.434;2023-05-18T08:28:24;2.15;;;0.70;;
33279;SDS011;20403;43.114;12.434;2023-05-18T08:30:50;1.27;;;0.60;;
33279;SDS011;20403;43.114;12.434;2023-05-18T08:33:16;0.82;;;0.50;;
33279;SDS011;20403;43.114;12.434;2023-05-18T08:35:42;2.45;;;0.85;;
33279;SDS011;20403;43.114;12.434;2023-05-18T08:38:07;3.22;;;0.70;;
33279;SDS011;20403;43.114;12.434;2023-05-18T08:40:36;1.65;;;0.70;;
33279;SDS011;20403;43.114;12.434;2023-05-18T08:43:25;3.03;;;0.70;;
33279;SDS011;20403;43.114;12.434;2023-05-18T08:46:04;2.65;;;0.70;;
33279;SDS011;20403;43.114;12.434;2023-05-18T08:48:44;2.28;;;0.70;;
33279;SDS011;20403;43.114;12.434;2023-05-18T08:51:11;1.75;;;0.50;;
33279;SDS011;20403;43.114;12.434;2023-05-18T08:53:39;3.10;;;1.00;;
33279;SDS011;20403;43.114;12.434;2023-05-18T08:56:05;3.20;;;0.80;;
33279;SDS011;20403;43.114;12.434;2023-05-18T08:58:33;3.78;;;0.80;;
33279;SDS011;20403;43.114;12.434;2023-05-18T09:01:00;4.55;;;0.98;;
33279;SDS011;20403;43.114;12.434;2023-05-18T09:03:26;3.70;;;1.30;;
33279;SDS011;20403;43.114;12.434;2023-05-18T09:05:53;1.92;;;0.77;;
33279;SDS011;20403;43.114;12.434;2023-05-18T09:08:21;4.82;;;0.93;;
33279;SDS011;20403;43.114;12.434;2023-05-18T09:10:47;3.72;;;0.90;;
33279;SDS011;20403;43.114;12.434;2023-05-18T09:13:14;3.67;;;0.63;;
33279;SDS011;20403;43.114;12.434;2023-05-18T09:15:44;1.13;;;0.90;;
33279;SDS011;20403;43.114;12.434;2023-05-18T09:18:10;1.50;;;0.70;;
33279;SDS011;20403;43.114;12.434;2023-05-18T09:20:36;1.70;;;0.80;;
33279;SDS011;20403;43.114;12.434;2023-05-18T09:23:01;2.20;;;0.95;;
33279;SDS011;20403;43.114;12.434;2023-05-18T09:25:27;5.88;;;1.40;;
33279;SDS011;20403;43.114;12.434;2023-05-18T09:27:56;1.83;;;1.00;;
33279;SDS011;20403;43.114;12.434;2023-05-18T09:30:21;3.25;;;0.95;;
33279;SDS011;20403;43.114;12.434;2023-05-18T09:32:48;4.25;;;1.20;;
33279;SDS011;20403;43.114;12.434;2023-05-18T09:35:16;3.20;;;1.05;;
33279;SDS011;20403;43.114;12.434;2023-05-18T09:37:42;4.35;;;0.95;;
33279;SDS011;20403;43.114;12.434;2023-05-18T09:40:08;2.50;;;0.85;;
33279;SDS011;20403;43.114;12.434;2023-05-18T09:47:43;2.78;;;0.95;;
33279;SDS011;20403;43.114;12.434;2023-05-18T09:50:09;4.50;;;0.80;;
33279;SDS011;20403;43.114;12.434;2023-05-18T09:52:41;1.45;;;0.90;;
33279;SDS011;20403;43.114;12.434;2023-05-18T09:55:09;1.88;;;0.88;;
33279;SDS011;20403;43.114;12.434;2023-05-18T09:57:39;3.38;;;0.90;;
33279;SDS011;20403;43.114;12.434;2023-05-18T10:00:07;6.97;;;1.27;;
33279;SDS011;20403;43.114;12.434;2023-05-18T10:02:42;3.72;;;1.10;;
33279;SDS011;20403;43.114;12.434;2023-05-18T10:05:22;6.78;;;0.90;;
33279;SDS011;20403;43.114;12.434;2023-05-18T10:07:51;3.33;;;1.13;;
33279;SDS011;20403;43.114;12.434;2023-05-18T10:10:18;14.52;;;1.10;;
33279;SDS011;20403;43.114;12.434;2023-05-18T10:12:45;3.17;;;1.08;;
33279;SDS011;20403;43.114;12.434;2023-05-18T10:15:14;1.30;;;0.80;;
33279;SDS011;20403;43.114;12.434;2023-05-18T10:17:41;1.47;;;0.90;;
33279;SDS011;20403;43.114;12.434;2023-05-18T10:20:08;4.88;;;1.05;;
33279;SDS011;20403;43.114;12.434;2023-05-18T10:22:34;4.75;;;1.00;;
33279;SDS011;20403;43.114;12.434;2023-05-18T10:25:02;6.30;;;1.08;;
33279;SDS011;20403;43.114;12.434;2023-05-18T10:27:29;3.15;;;1.48;;
33279;SDS011;20403;43.114;12.434;2023-05-18T10:29:59;5.37;;;1.00;;
33279;SDS011;20403;43.114;12.434;2023-05-18T10:32:29;3.08;;;0.80;;
33279;SDS011;20403;43.114;12.434;2023-05-18T10:34:55;4.47;;;1.02;;
33279;SDS011;20403;43.114;12.434;2023-05-18T10:37:21;3.08;;;1.00;;
33279;SDS011;20403;43.114;12.434;2023-05-18T10:39:49;2.38;;;0.90;;
33279;SDS011;20403;43.114;12.434;2023-05-18T10:42:16;2.45;;;0.98;;
33279;SDS011;20403;43.114;12.434;2023-05-18T10:44:43;2.22;;;0.95;;
33279;SDS011;20403;43.114;12.434;2023-05-18T10:47:11;5.18;;;1.30;;
33279;SDS011;20403;43.114;12.434;2023-05-18T10:49:39;6.38;;;1.40;;
33279;SDS011;20403;43.114;12.434;2023-05-18T10:52:06;1.58;;;0.80;;
33279;SDS011;20403;43.114;12.434;2023-05-18T10:54:33;3.67;;;1.00;;
33279;SDS011;20403;43.114;12.434;2023-05-18T10:57:00;3.65;;;1.17;;
33279;SDS011;20403;43.114;12.434;2023-05-18T10:59:26;2.28;;;1.00;;
33279;SDS011;20403;43.114;12.434;2023-05-18T11:01:52;3.78;;;1.20;;
33279;SDS011;20403;43.114;12.434;2023-05-18T11:04:23;4.88;;;0.82;;
33279;SDS011;20403;43.114;12.434;2023-05-18T11:07:00;2.03;;;1.00;;
33279;SDS011;20403;43.114;12.434;2023-05-18T11:09:27;3.55;;;0.90;;
33279;SDS011;20403;43.114;12.434;2023-05-18T11:11:55;5.43;;;1.00;;
33279;SDS011;20403;43.114;12.434;2023-05-18T11:14:25;3.85;;;1.10;;
33279;SDS011;20403;43.114;12.434;2023-05-18T11:22:38;2.17;;;0.90;;
33279;SDS011;20403;43.114;12.434;2023-05-18T11:27:56;4.00;;;1.20;;
33279;SDS011;20403;43.114;12.434;2023-05-18T11:30:30;2.63;;;1.05;;
33279;SDS011;20403;43.114;12.434;2023-05-18T11:35:54;2.67;;;0.85;;
33279;SDS011;20403;43.114;12.434;2023-05-18T11:44:13;1.88;;;0.77;;
33279;SDS011;20403;43.114;12.434;2023-05-18T11:49:29;6.88;;;1.13;;
33279;SDS011;20403;43.114;12.434;2023-05-18T11:52:02;6.47;;;1.27;;
33279;SDS011;20403;43.114;12.434;2023-05-18T11:54:49;10.77;;;1.15;;
33279;SDS011;20403;43.114;12.434;2023-05-18T11:57:19;3.20;;;1.00;;
33279;SDS011;20403;43.114;12.434;2023-05-18T11:59:54;4.93;;;1.42;;
33279;SDS011;20403;43.114;12.434;2023-05-18T12:02:25;4.82;;;0.90;;
33279;SDS011;20403;43.114;12.434;2023-05-18T12:04:51;4.63;;;1.20;;
33279;SDS011;20403;43.114;12.434;2023-05-18T12:07:18;4.72;;;1.20;;
33279;SDS011;20403;43.114;12.434;2023-05-18T12:09:45;3.50;;;0.90;;
33279;SDS011;20403;43.114;12.434;2023-05-18T12:12:12;5.53;;;1.27;;
33279;SDS011;20403;43.114;12.434;2023-05-18T12:14:41;3.83;;;1.10;;
33279;SDS011;20403;43.114;12.434;2023-05-18T12:17:08;5.18;;;0.90;;
33279;SDS011;20403;43.114;12.434;2023-05-18T12:19:37;4.03;;;1.17;;
33279;SDS011;20403;43.114;12.434;2023-05-18T12:22:06;2.28;;;1.05;;
33279;SDS011;20403;43.114;12.434;2023-05-18T12:24:33;5.30;;;0.95;;
33279;SDS011;20403;43.114;12.434;2023-05-18T12:26:58;9.30;;;1.30;;
33279;SDS011;20403;43.114;12.434;2023-05-18T12:29:24;3.53;;;1.38;;
33279;SDS011;20403;43.114;12.434;2023-05-18T12:31:49;2.70;;;1.45;;
33279;SDS011;20403;43.114;12.434;2023-05-18T12:34:15;2.42;;;1.05;;
33279;SDS011;20403;43.114;12.434;2023-05-18T12:36:53;2.85;;;1.15;;
33279;SDS011;20403;43.114;12.434;2023-05-18T12:39:19;3.47;;;1.20;;
33279;SDS011;20403;43.114;12.434;2023-05-18T12:41:45;5.60;;;1.02;;
33279;SDS011;20403;43.114;12.434;2023-05-18T12:44:11;3.80;;;1.10;;
33279;SDS011;20403;43.114;12.434;2023-05-18T12:46:37;3.22;;;1.08;;
33279;SDS011;20403;43.114;12.434;2023-05-18T12:49:02;4.55;;;1.48;;
33279;SDS011;20403;43.114;12.434;2023-05-18T12:51:33;3.95;;;1.05;;
33279;SDS011;20403;43.114;12.434;2023-05-18T12:54:02;4.90;;;1.13;;
33279;SDS011;20403;43.114;12.434;2023-05-18T12:59:16;4.15;;;1.05;;
33279;SDS011;20403;43.114;12.434;2023-05-18T13:01:42;4.28;;;1.10;;
33279;SDS011;20403;43.114;12.434;2023-05-18T13:04:09;7.35;;;1.30;;
33279;SDS011;20403;43.114;12.434;2023-05-18T13:06:38;7.40;;;1.67;;
33279;SDS011;20403;43.114;12.434;2023-05-18T13:09:11;4.03;;;1.48;;
33279;SDS011;20403;43.114;12.434;2023-05-18T13:11:37;4.07;;;1.40;;
33279;SDS011;20403;43.114;12.434;2023-05-18T13:14:04;2.85;;;1.10;;
33279;SDS011;20403;43.114;12.434;2023-05-18T13:16:36;3.03;;;1.05;;
33279;SDS011;20403;43.114;12.434;2023-05-18T13:19:03;6.50;;;1.40;;
33279;SDS011;20403;43.114;12.434;2023-05-18T13:21:31;5.43;;;1.27;;
33279;SDS011;20403;43.114;12.434;2023-05-18T13:23:58;4.30;;;1.17;;
33279;SDS011;20403;43.114;12.434;2023-05-18T13:26:23;3.33;;;1.20;;
33279;SDS011;20403;43.114;12.434;2023-05-18T13:28:50;6.45;;;1.15;;
33279;SDS011;20403;43.114;12.434;2023-05-18T13:31:17;5.70;;;1.55;;
33279;SDS011;20403;43.114;12.434;2023-05-18T13:33:43;7.07;;;1.48;;
33279;SDS011;20403;43.114;12.434;2023-05-18T13:36:10;7.75;;;1.92;;
33279;SDS011;20403;43.114;12.434;2023-05-18T13:38:36;4.88;;;0.90;;
33279;SDS011;20403;43.114;12.434;2023-05-18T13:41:02;8.70;;;1.20;;
33279;SDS011;20403;43.114;12.434;2023-05-18T13:43:29;9.98;;;1.23;;
33279;SDS011;20403;43.114;12.434;2023-05-18T13:45:54;6.47;;;1.05;;
33279;SDS011;20403;43.114;12.434;2023-05-18T13:48:20;6.70;;;1.30;;
33279;SDS011;20403;43.114;12.434;2023-05-18T13:50:46;2.67;;;1.08;;
33279;SDS011;20403;43.114;12.434;2023-05-18T13:53:11;5.13;;;1.45;;
33279;SDS011;20403;43.114;12.434;2023-05-18T13:55:37;4.65;;;1.60;;
33279;SDS011;20403;43.114;12.434;2023-05-18T13:58:02;3.03;;;1.08;;
33279;SDS011;20403;43.114;12.434;2023-05-18T14:00:28;5.45;;;1.42;;
33279;SDS011;20403;43.114;12.434;2023-05-18T14:02:53;4.50;;;1.63;;
33279;SDS011;20403;43.114;12.434;2023-05-18T14:05:18;3.78;;;1.30;;
33279;SDS011;20403;43.114;12.434;2023-05-18T14:07:44;6.22;;;1.38;;
33279;SDS011;20403;43.114;12.434;2023-05-18T14:10:10;4.80;;;1.17;;
33279;SDS011;20403;43.114;12.434;2023-05-18T14:12:37;4.70;;;1.60;;
33279;SDS011;20403;43.114;12.434;2023-05-18T14:15:03;2.75;;;1.27;;
33279;SDS011;20403;43.114;12.434;2023-05-18T14:17:29;5.47;;;1.30;;
33279;SDS011;20403;43.114;12.434;2023-05-18T14:19:55;5.20;;;1.48;;
33279;SDS011;20403;43.114;12.434;2023-05-18T14:22:21;2.33;;;1.00;;
33279;SDS011;20403;43.114;12.434;2023-05-18T14:24:47;3.88;;;1.13;;
33279;SDS011;20403;43.114;12.434;2023-05-18T14:27:13;6.68;;;1.55;;
33279;SDS011;20403;43.114;12.434;2023-05-18T14:29:38;5.40;;;1.30;;
33279;SDS011;20403;43.114;12.434;2023-05-18T14:32:04;5.22;;;1.33;;
33279;SDS011;20403;43.114;12.434;2023-05-18T14:34:30;6.97;;;1.45;;
33279;SDS011;20403;43.114;12.434;2023-05-18T14:36:55;6.13;;;1.40;;
33279;SDS011;20403;43.114;12.434;2023-05-18T14:39:20;2.92;;;1.23;;
33279;SDS011;20403;43.114;12.434;2023-05-18T14:41:46;3.85;;;1.42;;
33279;SDS011;20403;43.114;12.434;2023-05-18T14:44:11;2.45;;;1.13;;
33279;SDS011;20403;43.114;12.434;2023-05-18T14:46:37;4.45;;;1.38;;
33279;SDS011;20403;43.114;12.434;2023-05-18T14:49:04;3.80;;;1.23;;
33279;SDS011;20403;43.114;12.434;2023-05-18T14:51:30;4.75;;;1.50;;
33279;SDS011;20403;43.114;12.434;2023-05-18T14:53:55;6.32;;;1.60;;
33279;SDS011;20403;43.114;12.434;2023-05-18T14:56:21;9.90;;;1.70;;
33279;SDS011;20403;43.114;12.434;2023-05-18T14:58:46;6.28;;;1.55;;
33279;SDS011;20403;43.114;12.434;2023-05-18T15:01:12;8.48;;;2.10;;
33279;SDS011;20403;43.114;12.434;2023-05-18T15:03:37;7.80;;;1.20;;
33279;SDS011;20403;43.114;12.434;2023-05-18T15:06:03;5.68;;;1.60;;
33279;SDS011;20403;43.114;12.434;2023-05-18T15:08:28;4.28;;;1.45;;
33279;SDS011;20403;43.114;12.434;2023-05-18T15:10:54;6.05;;;1.52;;
33279;SDS011;20403;43.114;12.434;2023-05-18T15:13:19;4.20;;;1.30;;